createdAt,value
2023-03-19T00:02:08.980Z,53.47
2023-03-19T00:04:42.864Z,48.33
2023-03-19T00:07:10.175Z,48.80
2023-03-19T00:09:37.380Z,47.47
2023-03-19T00:12:04.694Z,44.30
2023-03-19T00:14:31.869Z,45.60
2023-03-19T00:16:59.120Z,48.27
2023-03-19T00:19:26.495Z,48.60
2023-03-19T00:21:54.033Z,47.73
2023-03-19T00:24:21.366Z,49.43
2023-03-19T00:26:48.550Z,55.00
2023-03-19T00:29:16.082Z,55.10
2023-03-19T00:31:43.619Z,53.40
2023-03-19T00:34:11.678Z,48.67
2023-03-19T00:36:38.908Z,49.53
2023-03-19T00:39:07.481Z,59.33
2023-03-19T00:41:34.729Z,60.30
2023-03-19T00:44:02.071Z,52.63
2023-03-19T00:46:29.422Z,48.23
2023-03-19T00:48:56.854Z,45.57
2023-03-19T00:51:24.740Z,44.90
2023-03-19T00:53:52.641Z,43.70
2023-03-19T00:56:20.289Z,40.83
2023-03-19T00:58:47.520Z,42.07
2023-03-19T01:01:16.348Z,40.40
2023-03-19T01:03:43.880Z,41.13
2023-03-19T01:06:12.146Z,39.27
2023-03-19T01:08:39.689Z,40.80
2023-03-19T01:11:14.837Z,42.83
2023-03-19T01:13:42.453Z,42.57
2023-03-19T01:16:09.886Z,41.47
2023-03-19T01:18:37.514Z,41.00
2023-03-19T01:21:04.957Z,41.30
2023-03-19T01:23:32.267Z,41.83
2023-03-19T01:25:59.601Z,40.13
2023-03-19T01:28:26.898Z,40.57
2023-03-19T01:30:54.154Z,38.53
2023-03-19T01:33:22.599Z,35.13
2023-03-19T01:35:51.760Z,35.57
2023-03-19T01:38:19.808Z,34.90
2023-03-19T01:40:48.273Z,32.00
2023-03-19T01:43:18.649Z,32.07
2023-03-19T01:45:48.073Z,32.83
2023-03-19T01:48:26.047Z,33.83
2023-03-19T01:50:55.310Z,33.07
2023-03-19T01:53:26.933Z,35.80
2023-03-19T01:55:57.592Z,36.83
2023-03-19T01:58:25.971Z,35.90
2023-03-19T02:00:53.744Z,40.13
2023-03-19T02:03:22.225Z,40.40
2023-03-19T02:05:50.036Z,36.83
2023-03-19T02:08:18.397Z,36.33
2023-03-19T02:10:47.715Z,36.37
2023-03-19T02:13:15.691Z,35.70
2023-03-19T02:15:43.047Z,34.30
2023-03-19T02:18:10.385Z,34.03
2023-03-19T02:20:37.681Z,34.00
2023-03-19T02:23:14.401Z,33.70
2023-03-19T02:25:44.854Z,33.50
2023-03-19T02:28:13.477Z,32.43
2023-03-19T02:30:41.151Z,32.40
2023-03-19T02:33:11.381Z,34.00
2023-03-19T02:35:39.135Z,33.90
2023-03-19T02:38:07.279Z,35.90
2023-03-19T02:40:39.870Z,36.03
2023-03-19T02:43:07.056Z,35.00
2023-03-19T02:45:34.250Z,39.60
2023-03-19T02:48:01.638Z,38.40
2023-03-19T02:50:28.851Z,39.10
2023-03-19T02:52:56.485Z,36.50
2023-03-19T02:55:23.970Z,38.20
2023-03-19T02:57:51.502Z,43.13
2023-03-19T03:00:19.097Z,45.00
2023-03-19T03:02:46.920Z,41.53
2023-03-19T03:05:14.612Z,40.00
2023-03-19T03:07:43.408Z,37.53
2023-03-19T03:10:11.290Z,36.33
2023-03-19T03:12:38.840Z,34.50
2023-03-19T03:15:07.063Z,34.37
2023-03-19T03:17:34.340Z,33.97
2023-03-19T03:20:01.621Z,33.77
2023-03-19T03:22:28.816Z,34.50
2023-03-19T03:24:56.240Z,33.20
2023-03-19T03:27:23.535Z,31.83
2023-03-19T03:29:50.765Z,32.87
2023-03-19T03:32:20.318Z,31.97
2023-03-19T03:34:47.519Z,30.87
2023-03-19T03:37:14.845Z,30.43
2023-03-19T03:39:42.666Z,30.07
2023-03-19T03:42:09.913Z,28.47
2023-03-19T03:44:37.275Z,31.93
2023-03-19T03:47:04.661Z,31.83
2023-03-19T03:49:31.858Z,30.50
2023-03-19T03:51:59.057Z,29.93
2023-03-19T03:54:26.257Z,29.07
2023-03-19T03:56:53.466Z,29.43
2023-03-19T03:59:20.680Z,27.23
2023-03-19T04:01:47.875Z,29.83
2023-03-19T04:04:15.577Z,29.63
2023-03-19T04:06:42.828Z,29.87
2023-03-19T04:09:10.014Z,29.10
2023-03-19T04:11:37.328Z,31.00
2023-03-19T04:14:04.556Z,31.97
2023-03-19T04:16:31.788Z,31.57
2023-03-19T04:18:59.046Z,30.47
2023-03-19T04:21:26.590Z,31.87
2023-03-19T04:23:53.835Z,31.13
2023-03-19T04:26:21.179Z,31.17
2023-03-19T04:28:48.360Z,31.57
2023-03-19T04:31:15.599Z,32.67
2023-03-19T04:33:43.403Z,32.43
2023-03-19T04:36:10.762Z,33.60
2023-03-19T04:38:38.732Z,32.80
2023-03-19T04:41:06.060Z,31.53
2023-03-19T04:43:33.331Z,31.37
2023-03-19T04:46:00.673Z,33.73
2023-03-19T04:48:28.482Z,34.60
2023-03-19T04:50:57.171Z,35.17
2023-03-19T04:53:25.701Z,33.50
2023-03-19T04:55:53.103Z,32.87
2023-03-19T04:58:20.366Z,28.80
2023-03-19T05:00:47.668Z,29.27
2023-03-19T05:03:15.944Z,27.67
2023-03-19T05:05:43.194Z,28.53
2023-03-19T05:08:10.495Z,26.60
2023-03-19T05:10:38.525Z,28.30
2023-03-19T05:13:05.746Z,26.50
2023-03-19T05:15:33.285Z,27.40
2023-03-19T05:18:00.534Z,26.37
2023-03-19T05:20:27.882Z,30.03
2023-03-19T05:22:55.251Z,36.73
2023-03-19T05:25:23.610Z,36.00
2023-03-19T05:27:50.889Z,34.13
2023-03-19T05:30:18.503Z,33.80
2023-03-19T05:32:46.785Z,34.67
2023-03-19T05:35:14.499Z,33.03
2023-03-19T05:37:42.473Z,33.90
2023-03-19T05:40:10.062Z,33.57
2023-03-19T05:42:38.032Z,34.17
2023-03-19T05:45:05.851Z,34.03
2023-03-19T05:47:34.253Z,34.67
2023-03-19T05:50:01.593Z,33.53
2023-03-19T05:52:28.780Z,34.83
2023-03-19T05:54:56.041Z,35.27
2023-03-19T05:57:23.275Z,35.60
2023-03-19T05:59:50.491Z,35.90
2023-03-19T06:02:17.741Z,34.47
2023-03-19T06:04:44.990Z,31.77
2023-03-19T06:07:12.348Z,30.63
2023-03-19T06:09:39.612Z,32.47
2023-03-19T06:12:06.952Z,34.83
2023-03-19T06:14:34.133Z,39.43
2023-03-19T06:17:01.323Z,31.37
2023-03-19T06:19:28.560Z,31.17
2023-03-19T06:21:55.906Z,32.60
2023-03-19T06:24:23.108Z,31.63
2023-03-19T06:26:50.315Z,32.23
2023-03-19T06:29:17.617Z,31.03
2023-03-19T06:31:45.137Z,32.23
2023-03-19T06:34:12.413Z,32.17
2023-03-19T06:36:39.648Z,32.30
2023-03-19T06:39:07.140Z,31.30
2023-03-19T06:41:34.329Z,30.77
2023-03-19T06:44:01.606Z,31.93
2023-03-19T06:46:28.788Z,31.03
2023-03-19T06:48:56.096Z,30.20
2023-03-19T06:51:23.340Z,31.13
2023-03-19T06:53:50.845Z,30.53
2023-03-19T06:56:18.085Z,31.40
2023-03-19T06:58:45.291Z,30.53
2023-03-19T07:01:12.593Z,31.50
2023-03-19T07:03:39.788Z,27.37
2023-03-19T07:06:07.387Z,26.97
2023-03-19T07:08:34.698Z,26.87
2023-03-19T07:11:05.725Z,26.87
2023-03-19T07:13:33.341Z,26.10
2023-03-19T07:16:00.746Z,25.47
2023-03-19T07:18:28.026Z,26.20
2023-03-19T07:20:55.468Z,27.57
2023-03-19T07:23:22.830Z,26.93
2023-03-19T07:25:50.203Z,27.70
2023-03-19T07:28:17.566Z,29.40
2023-03-19T07:30:44.830Z,30.67
2023-03-19T07:33:12.417Z,31.97
2023-03-19T07:35:39.766Z,30.30
2023-03-19T07:38:07.029Z,27.50
2023-03-19T07:40:34.593Z,24.70
2023-03-19T07:43:01.995Z,24.03
2023-03-19T07:45:29.233Z,24.03
2023-03-19T07:47:56.433Z,25.43
2023-03-19T07:50:23.708Z,24.10
2023-03-19T07:52:51.718Z,24.77
2023-03-19T07:55:19.061Z,25.60
2023-03-19T07:57:46.513Z,24.47
2023-03-19T08:00:14.556Z,24.57
2023-03-19T08:02:45.089Z,23.13
2023-03-19T08:05:12.390Z,23.90
2023-03-19T08:07:39.668Z,24.13
2023-03-19T08:10:07.471Z,22.00
2023-03-19T08:12:39.736Z,22.70
2023-03-19T08:15:07.849Z,24.10
2023-03-19T08:17:38.268Z,24.37
2023-03-19T08:20:06.782Z,23.63
2023-03-19T08:22:34.194Z,23.30
2023-03-19T08:25:01.457Z,22.73
2023-03-19T08:27:30.879Z,22.63
2023-03-19T08:29:59.208Z,23.73
2023-03-19T08:32:27.087Z,21.83
2023-03-19T08:34:54.295Z,26.80
2023-03-19T08:37:21.470Z,27.90
2023-03-19T08:39:51.025Z,22.87
2023-03-19T08:42:18.647Z,22.30
2023-03-19T08:44:46.170Z,19.83
2023-03-19T08:47:13.802Z,20.80
2023-03-19T08:49:41.122Z,22.13
2023-03-19T08:52:08.770Z,19.90
2023-03-19T08:54:36.956Z,20.10
2023-03-19T08:57:04.651Z,19.90
2023-03-19T08:59:34.173Z,19.83
2023-03-19T09:02:02.205Z,19.90
2023-03-19T09:04:29.561Z,21.23
2023-03-19T09:06:56.942Z,20.67
2023-03-19T09:09:24.843Z,20.03
2023-03-19T09:11:52.148Z,19.40
2023-03-19T09:14:23.200Z,19.97
2023-03-19T09:16:50.434Z,19.27
2023-03-19T09:19:17.816Z,19.23
2023-03-19T09:21:45.709Z,18.33
2023-03-19T09:24:12.897Z,18.33
2023-03-19T09:26:40.426Z,19.30
2023-03-19T09:29:08.170Z,18.70
2023-03-19T09:31:36.410Z,18.20
2023-03-19T09:34:03.719Z,19.13
2023-03-19T09:36:31.282Z,18.57
2023-03-19T09:38:58.834Z,17.90
2023-03-19T09:41:29.847Z,17.98
2023-03-19T09:44:02.077Z,18.43
2023-03-19T09:46:38.671Z,17.95
2023-03-19T09:49:13.169Z,18.48
2023-03-19T09:51:44.611Z,19.95
2023-03-19T09:54:23.642Z,19.08
2023-03-19T09:56:51.007Z,21.48
2023-03-19T09:59:18.202Z,19.90
2023-03-19T10:01:50.676Z,21.95
2023-03-19T10:04:21.281Z,20.25
2023-03-19T10:06:48.503Z,18.98
2023-03-19T10:09:31.225Z,20.17
2023-03-19T10:12:17.539Z,19.80
2023-03-19T10:14:52.803Z,19.63
2023-03-19T10:17:22.198Z,17.60
2023-03-19T10:19:54.055Z,17.52
2023-03-19T10:22:27.193Z,17.35
2023-03-19T10:24:54.912Z,18.15
2023-03-19T10:27:23.178Z,16.55
2023-03-19T10:29:51.257Z,16.30
2023-03-19T10:32:19.796Z,16.80
2023-03-19T10:34:53.887Z,15.85
2023-03-19T10:37:26.568Z,16.90
2023-03-19T10:39:56.612Z,18.25
2023-03-19T10:42:24.278Z,16.83
2023-03-19T10:44:57.695Z,16.20
2023-03-19T10:47:26.575Z,16.10
2023-03-19T10:49:54.646Z,17.80
2023-03-19T10:52:27.849Z,19.05
2023-03-19T10:55:13.866Z,17.45
2023-03-19T10:57:43.404Z,17.10
2023-03-19T11:00:17.998Z,17.88
2023-03-19T11:02:56.150Z,18.50
2023-03-19T11:05:29.923Z,15.15
2023-03-19T11:07:58.415Z,15.52
2023-03-19T11:10:27.417Z,15.50
2023-03-19T11:12:58.672Z,14.48
2023-03-19T11:15:30.373Z,15.05
2023-03-19T11:17:58.715Z,13.00
2023-03-19T11:20:32.596Z,14.30
2023-03-19T11:23:02.850Z,15.77
2023-03-19T11:25:41.644Z,15.27
2023-03-19T11:28:22.127Z,19.73
2023-03-19T11:30:50.247Z,17.73
2023-03-19T11:33:31.721Z,15.25
2023-03-19T11:36:06.875Z,16.05
2023-03-19T11:39:09.604Z,14.95
2023-03-19T11:41:55.635Z,15.57
2023-03-19T11:44:23.119Z,15.68
2023-03-19T11:46:56.584Z,15.70
2023-03-19T11:49:37.566Z,15.35
2023-03-19T11:52:19.861Z,16.40
2023-03-19T11:55:06.021Z,15.05
2023-03-19T12:00:50.765Z,14.60
2023-03-19T12:03:27.451Z,15.48
2023-03-19T12:06:00.308Z,15.20
2023-03-19T12:08:33.865Z,15.20
2023-03-19T12:11:14.793Z,17.75
2023-03-19T12:13:49.255Z,16.25
2023-03-19T12:16:25.892Z,17.48
2023-03-19T12:19:12.238Z,16.48
2023-03-19T12:22:01.636Z,16.88
2023-03-19T12:24:38.002Z,16.83
2023-03-19T12:27:08.634Z,16.42
2023-03-19T12:29:54.596Z,15.55
2023-03-19T12:32:43.964Z,16.75
2023-03-19T12:35:17.897Z,17.25
2023-03-19T12:37:45.301Z,15.70
2023-03-19T12:40:16.326Z,18.30
2023-03-19T12:42:44.017Z,17.33
2023-03-19T12:45:30.423Z,16.90
2023-03-19T12:48:17.953Z,17.13
2023-03-19T12:50:49.976Z,19.42
2023-03-19T12:53:52.371Z,18.02
2023-03-19T12:56:40.773Z,16.48
2023-03-19T12:59:34.512Z,17.25
2023-03-19T13:02:13.696Z,16.23
2023-03-19T13:04:43.566Z,16.42
2023-03-19T13:07:27.759Z,17.25
2023-03-19T13:10:01.911Z,17.48
2023-03-19T13:12:31.424Z,17.27
2023-03-19T13:15:01.934Z,17.30
2023-03-19T13:17:37.004Z,16.52
2023-03-19T13:20:27.706Z,17.48
2023-03-19T13:23:03.755Z,17.45
2023-03-19T13:25:35.995Z,17.65
2023-03-19T13:28:07.402Z,17.48
2023-03-19T13:30:35.029Z,17.58
2023-03-19T13:33:06.713Z,18.15
2023-03-19T13:35:40.598Z,17.40
2023-03-19T13:38:08.954Z,17.20
2023-03-19T13:40:36.422Z,17.20
2023-03-19T13:43:04.207Z,16.38
2023-03-19T13:45:41.294Z,16.33
2023-03-19T13:48:27.281Z,16.02
2023-03-19T13:51:01.952Z,15.73
2023-03-19T13:53:35.078Z,18.55
2023-03-19T13:56:05.797Z,18.42
2023-03-19T13:58:49.795Z,16.88
2023-03-19T14:01:37.345Z,16.33
2023-03-19T14:04:24.864Z,16.90
2023-03-19T14:06:57.338Z,16.25
2023-03-19T14:09:43.077Z,15.05
2023-03-19T14:12:16.698Z,15.18
2023-03-19T14:14:53.217Z,14.45
2023-03-19T14:17:26.127Z,12.95
2023-03-19T14:19:54.535Z,13.68
2023-03-19T14:22:51.387Z,13.70
2023-03-19T14:25:20.260Z,14.90
2023-03-19T14:27:51.766Z,16.05
2023-03-19T14:30:22.006Z,14.93
2023-03-19T14:32:50.634Z,15.75
2023-03-19T14:35:23.620Z,15.57
2023-03-19T14:37:52.537Z,15.57
2023-03-19T14:40:22.219Z,14.00
2023-03-19T14:42:57.151Z,13.95
2023-03-19T14:45:30.851Z,14.88
2023-03-19T14:48:04.490Z,15.32
2023-03-19T14:50:51.938Z,16.42
2023-03-19T14:53:23.344Z,16.33
2023-03-19T14:55:51.635Z,15.23
2023-03-19T14:58:22.013Z,14.68
2023-03-19T15:00:54.453Z,16.38
2023-03-19T15:03:33.086Z,15.90
2023-03-19T15:06:01.873Z,18.27
2023-03-19T15:08:31.252Z,20.02
2023-03-19T15:10:59.047Z,19.10
2023-03-19T15:13:44.760Z,17.50
2023-03-19T15:16:15.169Z,17.35
2023-03-19T15:18:42.800Z,17.90
2023-03-19T15:21:10.348Z,18.80
2023-03-19T15:23:38.839Z,18.73
2023-03-19T15:26:08.730Z,19.73
2023-03-19T15:28:49.622Z,17.40
2023-03-19T15:31:32.035Z,16.40
2023-03-19T15:34:17.756Z,20.60
2023-03-19T15:36:45.369Z,23.85
2023-03-19T15:39:12.895Z,24.17
2023-03-19T15:41:43.549Z,19.25
2023-03-19T15:44:12.559Z,19.92
2023-03-19T15:46:41.512Z,23.88
2023-03-19T15:49:22.708Z,21.65
2023-03-19T15:51:53.337Z,23.08
2023-03-19T15:54:21.438Z,21.88
2023-03-19T15:56:50.477Z,24.30
2023-03-19T15:59:18.413Z,22.25
2023-03-19T16:01:45.846Z,21.60
2023-03-19T16:04:20.853Z,21.17
2023-03-19T16:06:49.749Z,22.33
2023-03-19T16:09:23.862Z,23.08
2023-03-19T16:11:51.943Z,21.55
2023-03-19T16:14:25.014Z,21.55
2023-03-19T16:16:53.454Z,20.50
2023-03-19T16:19:34.626Z,24.45
2023-03-19T16:22:02.636Z,29.40
2023-03-19T16:24:36.203Z,30.42
2023-03-19T16:27:04.767Z,28.60
2023-03-19T16:30:01.419Z,29.65
2023-03-19T16:32:32.819Z,30.30
2023-03-19T16:35:19.968Z,32.63
2023-03-19T16:38:06.755Z,33.08
2023-03-19T16:40:34.603Z,32.05
2023-03-19T16:43:09.546Z,30.20
2023-03-19T16:45:37.304Z,28.50
2023-03-19T16:48:04.967Z,30.48
2023-03-19T16:50:33.742Z,27.35
2023-03-19T16:53:01.716Z,28.42
2023-03-19T16:55:32.305Z,30.63
2023-03-19T16:58:14.945Z,30.15
2023-03-19T17:00:43.665Z,29.05
2023-03-19T17:03:15.311Z,28.60
2023-03-19T17:05:43.014Z,28.48
2023-03-19T17:08:11.547Z,29.20
2023-03-19T17:10:40.867Z,31.58
2023-03-19T17:13:08.279Z,35.15
2023-03-19T17:15:37.322Z,36.67
2023-03-19T17:18:08.511Z,38.28
2023-03-19T17:20:37.519Z,39.40
2023-03-19T17:23:11.936Z,43.25
2023-03-19T17:25:39.496Z,46.85
2023-03-19T17:28:06.855Z,50.70
2023-03-19T17:30:34.696Z,51.05
2023-03-19T17:33:02.406Z,49.92
2023-03-19T17:35:30.033Z,50.88
2023-03-19T17:37:57.559Z,55.38
2023-03-19T17:40:27.570Z,56.20
2023-03-19T17:42:55.670Z,61.92
2023-03-19T17:45:27.628Z,67.35
2023-03-19T17:47:56.598Z,61.17
2023-03-19T17:50:28.326Z,60.67
2023-03-19T17:52:55.628Z,71.97
2023-03-19T17:55:26.184Z,71.90
2023-03-19T17:57:53.853Z,71.72
2023-03-19T18:00:22.317Z,71.40
2023-03-19T18:02:52.439Z,73.17
2023-03-19T18:05:24.295Z,67.90
2023-03-19T18:07:52.286Z,66.87
2023-03-19T18:10:21.029Z,66.97
2023-03-19T18:12:49.454Z,72.63
2023-03-19T18:15:17.245Z,70.10
2023-03-19T18:17:47.997Z,72.30
2023-03-19T18:20:17.479Z,68.67
2023-03-19T18:22:44.903Z,71.07
2023-03-19T18:25:17.046Z,71.20
2023-03-19T18:27:44.885Z,71.63
2023-03-19T18:30:13.346Z,71.37
2023-03-19T18:32:44.258Z,69.47
2023-03-19T18:35:31.800Z,81.80
2023-03-19T18:37:59.214Z,130.50
2023-03-19T18:40:28.372Z,126.07
2023-03-19T18:42:56.307Z,122.00
2023-03-19T18:45:24.040Z,131.07
2023-03-19T18:47:52.059Z,123.93
2023-03-19T18:50:23.980Z,131.47
2023-03-19T18:52:52.238Z,132.53
2023-03-19T18:55:20.871Z,139.10
2023-03-19T18:57:53.467Z,142.57
2023-03-19T19:00:26.272Z,156.23
2023-03-19T19:02:55.256Z,165.30
2023-03-19T19:05:27.800Z,154.90
2023-03-19T19:07:59.865Z,142.50
2023-03-19T19:10:29.749Z,138.07
2023-03-19T19:12:57.818Z,134.07
2023-03-19T19:15:26.544Z,139.00
2023-03-19T19:17:53.743Z,137.17
2023-03-19T19:20:23.125Z,137.00
2023-03-19T19:22:51.905Z,132.97
2023-03-19T19:25:20.141Z,142.83
2023-03-19T19:27:51.487Z,142.47
2023-03-19T19:30:21.779Z,139.73
2023-03-19T19:32:52.095Z,134.40
2023-03-19T19:35:26.061Z,130.00
2023-03-19T19:37:53.722Z,124.67
2023-03-19T19:40:22.693Z,122.13
2023-03-19T19:42:52.354Z,123.93
2023-03-19T19:45:29.576Z,118.13
2023-03-19T19:47:57.890Z,122.23
2023-03-19T19:50:27.584Z,115.13
2023-03-19T19:52:57.988Z,116.67
2023-03-19T19:55:27.421Z,117.17
2023-03-19T19:57:56.171Z,115.47
2023-03-19T20:00:26.128Z,115.63
2023-03-19T20:02:54.072Z,111.63
2023-03-19T20:05:33.270Z,107.53
2023-03-19T20:08:02.233Z,109.87
2023-03-19T20:10:30.425Z,115.53
2023-03-19T20:12:59.328Z,109.50
2023-03-19T20:15:27.899Z,111.00
2023-03-19T20:17:56.244Z,105.90
2023-03-19T20:20:28.176Z,106.17
2023-03-19T20:22:55.986Z,105.07
2023-03-19T20:25:27.859Z,102.10
2023-03-19T20:27:59.630Z,100.17
2023-03-19T20:30:28.632Z,96.83
2023-03-19T20:32:56.474Z,97.23
2023-03-19T20:35:25.157Z,100.33
2023-03-19T20:37:53.859Z,99.87
2023-03-19T20:40:21.539Z,98.30
2023-03-19T20:42:52.546Z,101.67
2023-03-19T20:45:24.139Z,101.37
2023-03-19T20:47:53.000Z,97.97
2023-03-19T20:50:28.367Z,96.43
2023-03-19T20:52:57.016Z,100.80
2023-03-19T20:55:27.057Z,98.57
2023-03-19T20:57:55.249Z,95.40
2023-03-19T21:00:27.214Z,94.37
2023-03-19T21:02:55.770Z,97.70
2023-03-19T21:05:24.178Z,100.37
2023-03-19T21:07:55.431Z,97.57
2023-03-19T21:10:33.405Z,102.47
2023-03-19T21:13:01.948Z,102.57
2023-03-19T21:15:29.517Z,113.60
2023-03-19T21:17:57.457Z,121.93
2023-03-19T21:20:26.311Z,128.53
2023-03-19T21:22:55.795Z,124.27
2023-03-19T21:25:24.918Z,118.53
2023-03-19T21:27:54.079Z,116.83
2023-03-19T21:30:22.187Z,120.47
2023-03-19T21:32:49.939Z,118.00
2023-03-19T21:35:35.922Z,118.07
2023-03-19T21:38:03.492Z,116.70
2023-03-19T21:40:31.658Z,112.90
2023-03-19T21:43:00.789Z,110.80
2023-03-19T21:45:29.033Z,111.83
2023-03-19T21:48:00.693Z,105.87
2023-03-19T21:50:27.901Z,107.90
2023-03-19T21:53:00.716Z,112.03
2023-03-19T21:55:29.853Z,108.10
2023-03-19T21:57:58.717Z,108.13
2023-03-19T22:00:26.646Z,104.40
2023-03-19T22:02:53.852Z,102.43
2023-03-19T22:05:21.212Z,102.07
2023-03-19T22:07:48.582Z,95.70
2023-03-19T22:10:16.170Z,96.93
2023-03-19T22:12:43.777Z,99.97
2023-03-19T22:15:18.098Z,101.20
2023-03-19T22:17:45.394Z,94.93
2023-03-19T22:20:20.093Z,99.00
2023-03-19T22:22:47.723Z,93.73
2023-03-19T22:25:15.995Z,95.03
2023-03-19T22:27:45.463Z,97.73
2023-03-19T22:30:33.535Z,88.10
2023-03-19T22:33:01.816Z,83.33
2023-03-19T22:35:29.756Z,80.50
2023-03-19T22:37:57.044Z,73.30
2023-03-19T22:40:26.344Z,73.10
2023-03-19T22:42:54.003Z,81.87
2023-03-19T22:45:27.264Z,80.67
2023-03-19T22:47:55.419Z,81.93
2023-03-19T22:50:24.410Z,84.60
2023-03-19T22:52:51.694Z,90.63
2023-03-19T22:55:19.229Z,94.43
2023-03-19T22:57:47.036Z,92.70
2023-03-19T23:00:23.883Z,102.60
2023-03-19T23:02:54.821Z,104.00
2023-03-19T23:05:25.091Z,107.23
2023-03-19T23:07:53.621Z,104.13
2023-03-19T23:10:21.598Z,103.27
2023-03-19T23:12:48.893Z,106.80
2023-03-19T23:15:16.819Z,106.17
2023-03-19T23:17:45.106Z,108.90
2023-03-19T23:20:17.469Z,109.77
2023-03-19T23:22:45.785Z,112.90
2023-03-19T23:25:14.631Z,109.30
2023-03-19T23:27:42.820Z,103.63
2023-03-19T23:30:20.570Z,101.20
2023-03-19T23:32:48.374Z,98.27
2023-03-19T23:35:16.461Z,92.73
2023-03-19T23:37:43.690Z,92.23
2023-03-19T23:40:11.195Z,91.83
2023-03-19T23:42:39.658Z,83.63
2023-03-19T23:45:07.956Z,86.07
2023-03-19T23:47:36.269Z,82.90
2023-03-19T23:50:03.734Z,84.67
2023-03-19T23:52:31.041Z,81.70
2023-03-19T23:54:58.279Z,79.60
2023-03-19T23:57:26.427Z,69.70
2023-03-19T23:59:54.161Z,70.23
